Terminal Aerodrome Forecast
Issued by NWS

Current Version | Previous Version | Graphics & Text | Print | Product List | Glossary On
Versions: 1 2 3 4 5 6 7 8 9 10 11 12 13 14 15 16
713
FTUS41 KPBZ 270720 AAA
TAFMGW
TAF AMD
KMGW 270720Z 2707/2806 20005KT P6SM BKN100
      TEMPO 2707/2708 VRB05KT 5SM -TSRA OVC050CB
     FM271500 27008KT P6SM SCT050=

USA.gov is the U.S. government's official web portal to all federal, state and local government web resources and services.